createdAt,value
2019-02-17T00:00:57.910Z,98.30
2019-02-17T00:04:02.616Z,98.40
2019-02-17T00:07:07.055Z,98.40
2019-02-17T00:10:11.485Z,98.40
2019-02-17T00:13:16.196Z,98.30
2019-02-17T00:16:20.935Z,97.90
2019-02-17T00:19:25.653Z,98.10
2019-02-17T00:22:30.090Z,98.10
2019-02-17T00:25:34.525Z,97.80
2019-02-17T00:28:38.967Z,98.00
2019-02-17T00:31:43.418Z,97.90
2019-02-17T00:34:48.185Z,98.00
2019-02-17T00:37:52.626Z,98.10
2019-02-17T00:40:57.074Z,97.90
2019-02-17T00:44:01.509Z,98.20
2019-02-17T00:47:05.956Z,98.60
2019-02-17T00:50:11.429Z,98.30
2019-02-17T00:53:16.365Z,98.10
2019-02-17T00:56:21.087Z,98.10
2019-02-17T00:59:25.525Z,97.60
2019-02-17T01:02:30.254Z,97.80
2019-02-17T01:05:34.978Z,97.60
2019-02-17T01:08:39.691Z,98.00
2019-02-17T01:11:44.438Z,97.70
2019-02-17T01:14:48.869Z,97.60
2019-02-17T01:17:53.601Z,98.20
2019-02-17T01:20:58.324Z,98.40
2019-02-17T01:24:02.769Z,98.60
2019-02-17T01:27:07.542Z,98.50
2019-02-17T01:30:15.677Z,98.50
2019-02-17T01:33:20.128Z,98.10
2019-02-17T01:36:24.550Z,98.50
2019-02-17T01:39:29.274Z,98.60
2019-02-17T01:42:33.710Z,98.50
2019-02-17T01:45:38.425Z,98.30
2019-02-17T01:48:42.868Z,98.50
2019-02-17T01:51:47.580Z,98.20
2019-02-17T01:54:52.322Z,98.20
2019-02-17T01:57:56.756Z,98.50
2019-02-17T02:01:01.459Z,98.40
2019-02-17T02:04:05.898Z,98.00
2019-02-17T02:07:10.327Z,98.50
2019-02-17T02:10:15.443Z,98.20
2019-02-17T02:13:19.933Z,98.40
2019-02-17T02:16:24.369Z,98.40
2019-02-17T02:19:29.129Z,98.60
2019-02-17T02:22:33.567Z,98.60
2019-02-17T02:25:38.016Z,98.50
2019-02-17T02:28:42.459Z,98.50
2019-02-17T02:31:46.907Z,98.30
2019-02-17T02:34:51.656Z,98.30
2019-02-17T02:37:56.113Z,98.30
2019-02-17T02:41:00.549Z,98.50
2019-02-17T02:44:05.336Z,98.70
2019-02-17T02:47:09.769Z,98.90
2019-02-17T02:50:14.593Z,98.80
2019-02-17T02:53:19.323Z,98.80
2019-02-17T02:56:23.767Z,98.60
2019-02-17T02:59:28.475Z,98.90
2019-02-17T03:02:33.213Z,98.90
2019-02-17T03:05:39.297Z,98.90
2019-02-17T03:08:43.749Z,99.00
2019-02-17T03:11:48.173Z,98.90
2019-02-17T03:14:52.949Z,99.00
2019-02-17T03:17:57.390Z,99.30
2019-02-17T03:21:01.837Z,99.00
2019-02-17T03:24:06.531Z,99.20
2019-02-17T03:27:10.966Z,99.00
2019-02-17T03:30:15.424Z,99.00
2019-02-17T03:33:19.846Z,98.90
2019-02-17T03:36:24.300Z,98.70
2019-02-17T03:39:29.060Z,98.60
2019-02-17T03:42:33.491Z,98.80
2019-02-17T03:45:37.935Z,99.00
2019-02-17T03:48:42.632Z,99.20
2019-02-17T03:51:47.077Z,99.20
2019-02-17T03:54:51.514Z,99.30
2019-02-17T03:57:56.210Z,99.40
2019-02-17T04:01:00.652Z,99.40
2019-02-17T04:04:05.091Z,99.30
2019-02-17T04:07:09.536Z,98.80
2019-02-17T04:10:14.317Z,99.10
2019-02-17T04:13:19.047Z,99.10
2019-02-17T04:16:23.489Z,99.20
2019-02-17T04:19:28.195Z,99.00
2019-02-17T04:22:32.637Z,99.10
2019-02-17T04:25:37.086Z,98.70
2019-02-17T04:28:41.778Z,99.00
2019-02-17T04:31:46.219Z,99.60
2019-02-17T04:34:50.936Z,99.70
2019-02-17T04:37:55.380Z,99.90
2019-02-17T04:40:59.828Z,99.80
2019-02-17T04:44:04.271Z,99.80
2019-02-17T04:47:09.034Z,99.80
2019-02-17T04:50:13.545Z,99.80
2019-02-17T04:53:17.975Z,99.80
2019-02-17T04:56:22.419Z,99.20
2019-02-17T04:59:26.855Z,99.80
2019-02-17T05:02:31.562Z,99.90
2019-02-17T05:05:36.291Z,99.90
2019-02-17T05:08:41.026Z,99.90
2019-02-17T05:11:45.770Z,99.40
2019-02-17T05:14:50.488Z,99.60
2019-02-17T05:17:54.933Z,99.80
2019-02-17T05:20:59.451Z,99.90
2019-02-17T05:24:04.173Z,99.90
2019-02-17T05:27:08.901Z,99.90
2019-02-17T05:30:13.402Z,99.90
2019-02-17T05:33:18.158Z,99.70
2019-02-17T05:36:22.881Z,99.70
2019-02-17T05:39:27.316Z,99.90
2019-02-17T05:42:32.035Z,99.90
2019-02-17T05:45:36.477Z,99.90
2019-02-17T05:48:40.920Z,99.90
2019-02-17T05:51:45.627Z,99.90
2019-02-17T05:54:50.581Z,99.60
2019-02-17T05:57:55.183Z,99.90
2019-02-17T06:01:03.709Z,99.90
2019-02-17T06:04:06.074Z,99.90
2019-02-17T06:07:10.514Z,99.90
2019-02-17T06:10:14.945Z,99.90
2019-02-17T06:13:19.658Z,99.90
2019-02-17T06:16:24.384Z,99.90
2019-02-17T06:19:28.825Z,99.70
2019-02-17T06:22:33.548Z,99.90
2019-02-17T06:25:37.976Z,99.90
2019-02-17T06:28:42.699Z,99.90
2019-02-17T06:31:47.159Z,99.90
2019-02-17T06:34:51.596Z,99.90
2019-02-17T06:37:56.043Z,99.90
2019-02-17T06:41:00.481Z,99.90
2019-02-17T06:44:04.982Z,99.70
2019-02-17T06:47:11.389Z,99.40
2019-02-17T06:50:15.822Z,98.50
2019-02-17T06:53:20.539Z,97.30
2019-02-17T06:56:41.763Z,96.30
2019-02-17T06:59:46.484Z,95.60
2019-02-17T07:02:50.941Z,95.70
2019-02-17T07:05:57.281Z,96.20
2019-02-17T07:09:01.800Z,96.70
2019-02-17T07:12:06.245Z,97.40
2019-02-17T07:15:10.754Z,98.20
2019-02-17T07:18:15.510Z,99.10
2019-02-17T07:21:20.224Z,98.90
2019-02-17T07:24:25.003Z,99.30
2019-02-17T07:27:29.525Z,99.30
2019-02-17T07:30:33.977Z,99.80
2019-02-17T07:33:38.734Z,99.90
2019-02-17T07:36:43.466Z,99.90
2019-02-17T07:39:47.934Z,99.90
2019-02-17T07:42:52.828Z,99.90
2019-02-17T07:45:57.276Z,99.90
2019-02-17T07:49:01.981Z,99.90
2019-02-17T07:52:06.727Z,99.80
2019-02-17T07:55:12.078Z,99.70
2019-02-17T07:58:16.524Z,99.90
2019-02-17T08:01:20.968Z,99.50
2019-02-17T08:04:25.416Z,99.20
2019-02-17T08:07:29.861Z,99.50
2019-02-17T08:10:34.799Z,99.80
2019-02-17T08:13:39.224Z,99.20
2019-02-17T08:16:43.673Z,99.00
2019-02-17T08:19:48.359Z,98.30
2019-02-17T08:22:52.801Z,98.40
2019-02-17T08:25:57.528Z,98.20
2019-02-17T08:29:01.966Z,97.60
2019-02-17T08:32:06.406Z,97.90
2019-02-17T08:35:11.519Z,97.60
2019-02-17T08:38:16.233Z,97.40
2019-02-17T08:41:20.680Z,97.20
2019-02-17T08:44:25.410Z,97.20
2019-02-17T08:47:29.830Z,96.80
2019-02-17T08:50:34.555Z,97.00
2019-02-17T08:53:38.989Z,97.10
2019-02-17T08:56:43.700Z,97.00
2019-02-17T08:59:48.148Z,97.10
2019-02-17T09:02:52.857Z,96.20
2019-02-17T09:05:57.586Z,95.80
2019-02-17T09:09:02.320Z,95.70
2019-02-17T09:12:06.757Z,95.50
2019-02-17T09:15:13.086Z,95.30
2019-02-17T09:18:17.519Z,95.40
2019-02-17T09:21:22.259Z,95.00
2019-02-17T09:24:26.691Z,94.90
2019-02-17T09:27:31.131Z,94.70
2019-02-17T09:30:35.606Z,94.50
2019-02-17T09:33:40.037Z,93.80
2019-02-17T09:36:44.788Z,93.70
2019-02-17T09:39:49.222Z,93.20
2019-02-17T09:42:53.720Z,93.40
2019-02-17T09:45:58.478Z,93.40
2019-02-17T09:49:03.205Z,92.60
2019-02-17T09:52:07.927Z,92.60
2019-02-17T09:55:12.654Z,90.70
2019-02-17T09:58:17.089Z,86.90
2019-02-17T10:01:21.538Z,76.20
2019-02-17T10:04:25.988Z,66.00
2019-02-17T10:07:30.512Z,61.20
2019-02-17T10:10:35.291Z,57.30
2019-02-17T10:13:39.746Z,51.60
2019-02-17T10:16:44.652Z,52.10
2019-02-17T10:19:49.092Z,50.70
2019-02-17T10:22:53.546Z,49.70
2019-02-17T10:25:57.996Z,49.60
2019-02-17T10:29:02.449Z,53.20
2019-02-17T10:32:06.900Z,50.80
2019-02-17T10:35:11.349Z,50.30
2019-02-17T10:38:16.131Z,49.90
2019-02-17T10:41:20.871Z,50.00
2019-02-17T10:44:25.317Z,51.80
2019-02-17T10:47:30.222Z,52.60
2019-02-17T10:50:34.954Z,51.90
2019-02-17T10:53:39.687Z,50.30
2019-02-17T10:56:44.413Z,51.40
2019-02-17T10:59:48.855Z,53.30
2019-02-17T11:02:53.671Z,54.30
2019-02-17T11:05:58.123Z,52.20
2019-02-17T11:09:03.048Z,55.20
2019-02-17T11:12:07.497Z,55.70
2019-02-17T11:15:20.570Z,57.90
2019-02-17T11:18:25.018Z,55.30
2019-02-17T11:21:29.468Z,57.60
2019-02-17T11:24:33.950Z,54.50
2019-02-17T11:27:38.398Z,54.80
2019-02-17T11:30:42.835Z,55.00
2019-02-17T11:33:47.628Z,52.60
2019-02-17T11:36:52.370Z,53.90
2019-02-17T11:39:56.821Z,55.10
2019-02-17T11:43:01.616Z,56.50
2019-02-17T11:46:06.060Z,53.40
2019-02-17T11:49:10.524Z,53.80
2019-02-17T11:52:15.429Z,54.60
2019-02-17T11:55:19.854Z,52.70
2019-02-17T11:58:24.308Z,53.70
2019-02-17T12:01:29.084Z,54.50
2019-02-17T12:04:33.537Z,51.30
2019-02-17T12:07:38.241Z,49.00
2019-02-17T12:10:42.680Z,48.60
2019-02-17T12:13:47.392Z,46.50
2019-02-17T12:16:52.123Z,46.50
2019-02-17T12:19:58.224Z,47.30
2019-02-17T12:23:06.734Z,46.50
2019-02-17T12:26:13.183Z,45.00
2019-02-17T12:29:19.538Z,43.30
2019-02-17T12:32:25.623Z,43.20
2019-02-17T12:35:30.332Z,42.30
2019-02-17T12:38:34.794Z,41.90
2019-02-17T12:41:39.232Z,40.30
2019-02-17T12:44:43.686Z,39.20
2019-02-17T12:47:57.462Z,39.40
2019-02-17T12:50:54.910Z,40.00
2019-02-17T12:53:59.360Z,39.40
2019-02-17T12:57:03.806Z,37.90
2019-02-17T13:00:15.734Z,39.50
2019-02-17T13:03:28.229Z,38.10
2019-02-17T13:06:26.783Z,40.10
2019-02-17T13:09:31.590Z,40.90
2019-02-17T13:12:36.320Z,40.80
2019-02-17T13:15:40.770Z,41.70
2019-02-17T13:18:45.229Z,40.50
2019-02-17T13:21:49.665Z,42.50
2019-02-17T13:24:54.421Z,41.20
2019-02-17T13:27:59.152Z,40.60
2019-02-17T13:31:03.603Z,38.40
2019-02-17T13:34:08.442Z,34.80
2019-02-17T13:37:12.855Z,33.40
2019-02-17T13:40:17.308Z,32.90
2019-02-17T13:43:21.746Z,31.00
2019-02-17T13:46:26.195Z,31.60
2019-02-17T13:49:30.928Z,30.00
2019-02-17T13:52:35.667Z,29.70
2019-02-17T13:55:40.186Z,30.60
2019-02-17T13:58:44.631Z,30.70
2019-02-17T14:01:49.083Z,31.00
2019-02-17T14:04:53.611Z,30.90
2019-02-17T14:07:58.302Z,31.90
2019-02-17T14:11:02.740Z,34.00
2019-02-17T14:14:07.201Z,33.70
2019-02-17T14:17:11.975Z,35.60
2019-02-17T14:20:16.432Z,35.00
2019-02-17T14:23:21.127Z,35.90
2019-02-17T14:26:25.668Z,35.20
2019-02-17T14:29:32.068Z,36.60
2019-02-17T14:32:36.441Z,36.60
2019-02-17T14:35:40.896Z,36.80
2019-02-17T14:38:45.351Z,37.90
2019-02-17T14:41:49.797Z,37.50
2019-02-17T14:44:54.251Z,37.00
2019-02-17T14:47:58.975Z,38.30
2019-02-17T14:51:03.712Z,39.50
2019-02-17T14:54:08.184Z,40.30
2019-02-17T14:57:12.961Z,40.50
2019-02-17T15:00:18.050Z,42.60
2019-02-17T15:03:22.501Z,43.10
2019-02-17T15:06:27.318Z,44.20
2019-02-17T15:09:34.755Z,43.40
2019-02-17T15:12:39.476Z,43.90
2019-02-17T15:15:44.217Z,44.60
2019-02-17T15:18:48.951Z,44.80
2019-02-17T15:21:53.676Z,46.00
2019-02-17T15:24:58.412Z,47.70
2019-02-17T15:28:02.857Z,46.90
2019-02-17T15:31:07.305Z,47.50
2019-02-17T15:34:18.441Z,46.00
2019-02-17T15:37:18.257Z,47.80
2019-02-17T15:40:23.538Z,46.40
2019-02-17T15:43:28.324Z,47.00
2019-02-17T15:46:32.772Z,48.20
2019-02-17T15:49:37.233Z,50.50
2019-02-17T15:52:42.005Z,47.90
2019-02-17T15:55:46.733Z,49.20
2019-02-17T15:58:51.176Z,52.40
2019-02-17T16:01:55.895Z,56.30
2019-02-17T16:05:00.342Z,58.40
2019-02-17T16:08:04.798Z,58.10
2019-02-17T16:11:09.573Z,56.10
2019-02-17T16:14:14.305Z,55.70
2019-02-17T16:17:18.753Z,61.00
2019-02-17T16:20:23.203Z,62.90
2019-02-17T16:23:27.979Z,64.10
2019-02-17T16:26:32.836Z,65.40
2019-02-17T16:29:37.541Z,67.00
2019-02-17T16:32:41.985Z,67.30
2019-02-17T16:35:46.441Z,68.00
2019-02-17T16:38:50.872Z,68.90
2019-02-17T16:41:55.321Z,70.70
2019-02-17T16:45:00.800Z,71.20
2019-02-17T16:48:05.933Z,72.20
2019-02-17T16:51:10.390Z,72.90
2019-02-17T16:54:15.190Z,74.00
2019-02-17T16:57:19.917Z,74.80
2019-02-17T17:00:25.674Z,75.30
2019-02-17T17:03:30.186Z,76.10
2019-02-17T17:06:34.943Z,77.50
2019-02-17T17:09:39.388Z,76.80
2019-02-17T17:12:43.903Z,77.30
2019-02-17T17:15:48.349Z,79.40
2019-02-17T17:18:53.130Z,79.80
2019-02-17T17:21:57.575Z,80.70
2019-02-17T17:25:02.020Z,81.40
2019-02-17T17:28:06.479Z,81.80
2019-02-17T17:31:10.930Z,83.30
2019-02-17T17:34:15.366Z,83.20
2019-02-17T17:37:19.891Z,83.40
2019-02-17T17:40:24.609Z,83.50
2019-02-17T17:43:29.359Z,85.20
2019-02-17T17:46:33.828Z,85.40
2019-02-17T17:49:38.463Z,86.30
2019-02-17T17:52:42.902Z,86.50
2019-02-17T17:55:47.330Z,88.10
2019-02-17T17:58:51.780Z,88.40
2019-02-17T18:01:56.227Z,89.20
2019-02-17T18:05:08.678Z,90.00
2019-02-17T18:08:07.082Z,89.90
2019-02-17T18:11:11.516Z,90.30
2019-02-17T18:14:16.238Z,90.50
2019-02-17T18:17:20.982Z,90.40
2019-02-17T18:20:25.697Z,90.70
2019-02-17T18:23:30.147Z,91.00
2019-02-17T18:26:34.749Z,90.90
2019-02-17T18:29:39.196Z,91.40
2019-02-17T18:32:43.662Z,91.40
2019-02-17T18:35:48.096Z,91.90
2019-02-17T18:38:52.868Z,91.80
2019-02-17T18:41:57.585Z,92.00
2019-02-17T18:45:02.031Z,91.90
2019-02-17T18:48:06.480Z,92.40
2019-02-17T18:51:10.908Z,92.10
2019-02-17T18:54:15.361Z,92.50
2019-02-17T18:57:19.807Z,92.60
2019-02-17T19:00:26.560Z,92.60
2019-02-17T19:03:31.318Z,92.90
2019-02-17T19:06:36.070Z,93.00
2019-02-17T19:09:40.777Z,92.90
2019-02-17T19:12:45.237Z,93.30
2019-02-17T19:15:49.670Z,93.30
2019-02-17T19:18:54.141Z,93.20
2019-02-17T19:21:58.986Z,93.10
2019-02-17T19:25:03.698Z,93.40
2019-02-17T19:28:08.225Z,93.40
2019-02-17T19:31:12.975Z,93.50
2019-02-17T19:34:17.701Z,93.60
2019-02-17T19:37:22.442Z,93.70
2019-02-17T19:40:27.159Z,93.90
2019-02-17T19:43:31.673Z,94.10
2019-02-17T19:46:36.421Z,94.00
2019-02-17T19:49:41.462Z,93.60
2019-02-17T19:52:51.827Z,93.60
2019-02-17T19:55:59.321Z,93.80
2019-02-17T19:59:05.502Z,93.40
2019-02-17T20:02:10.037Z,93.30
2019-02-17T20:05:19.087Z,93.30
2019-02-17T20:08:24.506Z,93.40
2019-02-17T20:11:29.307Z,93.80
2019-02-17T20:14:33.941Z,93.90
2019-02-17T20:17:38.382Z,94.20
2019-02-17T20:20:42.841Z,94.30
2019-02-17T20:23:47.302Z,94.40
2019-02-17T20:26:51.748Z,94.20
2019-02-17T20:29:56.196Z,94.30
2019-02-17T20:33:00.896Z,94.20
2019-02-17T20:36:05.336Z,94.50
2019-02-17T20:39:10.060Z,94.40
2019-02-17T20:42:14.503Z,94.60
2019-02-17T20:45:19.313Z,94.40
2019-02-17T20:48:23.750Z,94.20
2019-02-17T20:51:28.188Z,94.20
2019-02-17T20:54:32.644Z,94.20
2019-02-17T20:57:37.413Z,94.10
2019-02-17T21:00:41.859Z,94.50
2019-02-17T21:03:46.569Z,94.40
2019-02-17T21:06:51.012Z,94.40
2019-02-17T21:09:55.446Z,94.40
2019-02-17T21:12:59.954Z,94.30
2019-02-17T21:16:06.210Z,94.20
2019-02-17T21:19:10.954Z,94.00
2019-02-17T21:22:15.989Z,94.00
2019-02-17T21:25:21.485Z,94.10
2019-02-17T21:28:25.934Z,94.00
2019-02-17T21:31:30.502Z,94.20
2019-02-17T21:34:35.044Z,94.20
2019-02-17T21:37:40.035Z,94.40
2019-02-17T21:40:44.770Z,94.30
2019-02-17T21:43:49.379Z,94.20
2019-02-17T21:46:53.881Z,94.40
2019-02-17T21:49:58.672Z,94.30
2019-02-17T21:53:03.202Z,94.20
2019-02-17T21:56:08.064Z,94.40
2019-02-17T21:59:13.127Z,94.50
2019-02-17T22:02:17.755Z,94.40
2019-02-17T22:05:34.277Z,94.70
2019-02-17T22:08:34.100Z,94.70
2019-02-17T22:11:39.658Z,94.80
2019-02-17T22:14:44.379Z,94.60
2019-02-17T22:17:49.227Z,94.70
2019-02-17T22:20:53.664Z,94.80
2019-02-17T22:23:58.215Z,95.00
2019-02-17T22:27:02.601Z,94.90
2019-02-17T22:30:11.813Z,95.60
2019-02-17T22:33:16.226Z,95.60
2019-02-17T22:36:21.478Z,96.00
2019-02-17T22:39:25.913Z,95.70
2019-02-17T22:42:30.649Z,95.60
2019-02-17T22:45:35.098Z,95.60
2019-02-17T22:48:39.532Z,95.80
2019-02-17T22:51:43.975Z,96.00
2019-02-17T22:54:48.449Z,96.20
2019-02-17T22:57:52.892Z,96.60
2019-02-17T23:01:01.215Z,95.80
2019-02-17T23:04:06.051Z,95.80
2019-02-17T23:07:10.452Z,96.00
2019-02-17T23:10:14.959Z,96.00
2019-02-17T23:13:19.794Z,96.10
2019-02-17T23:16:24.229Z,96.20
2019-02-17T23:19:28.953Z,96.20
2019-02-17T23:22:33.397Z,96.20
2019-02-17T23:25:37.890Z,96.00
2019-02-17T23:28:42.339Z,96.00
2019-02-17T23:31:47.059Z,95.70
2019-02-17T23:34:51.503Z,96.00
2019-02-17T23:37:55.942Z,96.00
2019-02-17T23:41:00.372Z,95.90
2019-02-17T23:44:05.161Z,96.10
2019-02-17T23:47:09.608Z,96.10
2019-02-17T23:50:15.266Z,96.40
2019-02-17T23:53:19.962Z,96.70
2019-02-17T23:56:24.690Z,96.50
2019-02-17T23:59:29.138Z,96.50
